createdAt,value
2022-12-18T00:01:18.355Z,96014.25
2022-12-18T00:03:17.012Z,96008.69
2022-12-18T00:05:15.640Z,96022.66
2022-12-18T00:07:13.896Z,96030.25
2022-12-18T00:09:12.356Z,96030.50
2022-12-18T00:11:14.172Z,96030.19
2022-12-18T00:13:14.416Z,96025.81
2022-12-18T00:15:13.019Z,96019.13
2022-12-18T00:17:11.326Z,96032.44
2022-12-18T00:19:09.520Z,96036.22
2022-12-18T00:21:11.302Z,96039.66
2022-12-18T00:23:09.887Z,96044.72
2022-12-18T00:25:08.837Z,96035.72
2022-12-18T00:27:06.888Z,96047.31
2022-12-18T00:29:08.353Z,96046.22
2022-12-18T00:31:08.499Z,96043.72
2022-12-18T00:33:06.720Z,96043.19
2022-12-18T00:35:08.045Z,96041.09
2022-12-18T00:37:06.240Z,96050.44
2022-12-18T00:39:07.266Z,96052.81
2022-12-18T00:41:06.304Z,96043.44
2022-12-18T00:43:06.327Z,96055.59
2022-12-18T00:45:13.007Z,96052.88
2022-12-18T00:47:11.551Z,96049.66
2022-12-18T00:49:08.785Z,96055.88
2022-12-18T00:51:07.895Z,96059.94
2022-12-18T00:53:06.320Z,96072.09
2022-12-18T00:55:06.564Z,96072.59
2022-12-18T00:57:05.185Z,96069.56
2022-12-18T00:59:03.432Z,96078.66
2022-12-18T01:01:03.023Z,96071.53
2022-12-18T01:03:01.349Z,96079.97
2022-12-18T01:04:59.779Z,96082.91
2022-12-18T01:06:57.876Z,96080.44
2022-12-18T01:08:56.223Z,96083.44
2022-12-18T01:10:54.474Z,96081.75
2022-12-18T01:12:52.872Z,96084.66
2022-12-18T01:14:51.080Z,96091.19
2022-12-18T01:16:50.913Z,96081.53
2022-12-18T01:18:49.127Z,96092.88
2022-12-18T01:20:47.302Z,96096.31
2022-12-18T01:22:45.637Z,96096.75
2022-12-18T01:24:43.827Z,96095.78
2022-12-18T01:26:41.912Z,96100.22
2022-12-18T01:28:40.995Z,96093.81
2022-12-18T01:30:39.767Z,96094.84
2022-12-18T01:32:40.222Z,96091.03
2022-12-18T01:34:39.060Z,96091.94
2022-12-18T01:36:40.220Z,96098.50
2022-12-18T01:38:38.485Z,96111.78
2022-12-18T01:40:37.009Z,96111.16
2022-12-18T01:42:35.358Z,96118.06
2022-12-18T01:45:10.013Z,96113.91
2022-12-18T01:47:08.263Z,96115.41
2022-12-18T01:49:07.954Z,96115.72
2022-12-18T01:51:07.093Z,96120.47
2022-12-18T01:53:09.569Z,96112.03
2022-12-18T01:55:09.597Z,96121.13
2022-12-18T01:57:08.055Z,96116.13
2022-12-18T01:59:10.297Z,96120.84
2022-12-18T02:01:08.646Z,96114.84
2022-12-18T02:03:07.163Z,96114.16
2022-12-18T02:05:08.410Z,96125.34
2022-12-18T02:07:14.879Z,96118.59
2022-12-18T02:09:17.657Z,96119.03
2022-12-18T02:11:26.683Z,96127.94
2022-12-18T02:13:32.322Z,96124.50
2022-12-18T02:15:41.437Z,96131.97
2022-12-18T02:17:45.188Z,96134.69
2022-12-18T02:19:57.850Z,96133.78
2022-12-18T02:22:13.480Z,96148.00
2022-12-18T02:24:26.549Z,96143.81
2022-12-18T02:26:31.192Z,96146.59
2022-12-18T02:28:34.575Z,96145.75
2022-12-18T02:30:40.057Z,96146.19
2022-12-18T02:32:43.619Z,96151.53
2022-12-18T02:34:42.752Z,96141.94
2022-12-18T02:36:47.548Z,96147.72
2022-12-18T02:38:48.083Z,96149.75
2022-12-18T02:40:48.665Z,96146.78
2022-12-18T02:42:51.594Z,96156.25
2022-12-18T02:44:52.711Z,96160.81
2022-12-18T02:46:56.202Z,96158.22
2022-12-18T02:49:02.440Z,96165.28
2022-12-18T02:51:06.830Z,96161.03
2022-12-18T02:53:17.698Z,96157.59
2022-12-18T02:55:28.230Z,96158.38
2022-12-18T02:57:38.693Z,96161.38
2022-12-18T02:59:43.376Z,96148.81
2022-12-18T03:01:51.560Z,96161.47
2022-12-18T03:03:54.493Z,96151.09
2022-12-18T03:05:55.555Z,96157.31
2022-12-18T03:07:59.141Z,96142.94
2022-12-18T03:10:02.616Z,96145.06
2022-12-18T03:12:23.911Z,96155.19
2022-12-18T03:14:25.680Z,96161.38
2022-12-18T03:16:29.395Z,96165.75
2022-12-18T03:18:32.642Z,96177.72
2022-12-18T03:20:34.609Z,96175.63
2022-12-18T03:22:35.545Z,96180.84
2022-12-18T03:24:35.862Z,96174.41
2022-12-18T03:26:35.661Z,96177.66
2022-12-18T03:28:39.737Z,96178.22
2022-12-18T03:30:42.535Z,96181.03
2022-12-18T03:32:49.228Z,96190.09
2022-12-18T03:34:51.323Z,96198.41
2022-12-18T03:36:52.219Z,96192.44
2022-12-18T03:38:50.696Z,96199.00
2022-12-18T03:41:00.617Z,96198.19
2022-12-18T03:43:08.981Z,96201.47
2022-12-18T03:45:11.925Z,96208.13
2022-12-18T03:47:17.714Z,96208.34
2022-12-18T03:49:26.289Z,96223.88
2022-12-18T03:51:32.517Z,96227.28
2022-12-18T03:53:37.420Z,96228.22
2022-12-18T03:55:38.204Z,96221.88
2022-12-18T03:57:39.294Z,96216.09
2022-12-18T03:59:38.588Z,96220.44
2022-12-18T04:01:40.669Z,96227.41
2022-12-18T04:03:41.355Z,96216.75
2022-12-18T04:05:42.465Z,96215.56
2022-12-18T04:07:42.319Z,96219.22
2022-12-18T04:09:44.024Z,96220.56
2022-12-18T04:11:43.210Z,96224.50
2022-12-18T04:13:44.312Z,96230.72
2022-12-18T04:15:50.689Z,96232.53
2022-12-18T04:17:51.642Z,96235.72
2022-12-18T04:19:53.974Z,96250.50
2022-12-18T04:21:53.503Z,96253.84
2022-12-18T04:23:52.429Z,96259.50
2022-12-18T04:25:53.088Z,96263.81
2022-12-18T04:28:04.795Z,96267.66
2022-12-18T04:30:03.995Z,96259.41
2022-12-18T04:32:02.828Z,96262.47
2022-12-18T04:34:03.195Z,96266.25
2022-12-18T04:36:04.044Z,96271.53
2022-12-18T04:38:03.654Z,96281.16
2022-12-18T04:40:02.411Z,96270.75
2022-12-18T04:42:09.277Z,96275.91
2022-12-18T04:44:07.556Z,96286.44
2022-12-18T04:46:07.261Z,96286.91
2022-12-18T04:48:06.638Z,96294.63
2022-12-18T04:50:05.632Z,96298.03
2022-12-18T04:52:04.019Z,96298.78
2022-12-18T04:54:06.484Z,96292.47
2022-12-18T04:56:07.037Z,96303.22
2022-12-18T04:58:06.083Z,96311.09
2022-12-18T05:00:07.220Z,96307.78
2022-12-18T05:02:05.548Z,96312.00
2022-12-18T05:04:04.309Z,96310.56
2022-12-18T05:06:02.901Z,96322.13
2022-12-18T05:08:01.182Z,96307.31
2022-12-18T05:10:01.053Z,96309.34
2022-12-18T05:11:59.219Z,96320.78
2022-12-18T05:13:57.402Z,96325.81
2022-12-18T05:15:55.847Z,96332.72
2022-12-18T05:17:54.190Z,96339.59
2022-12-18T05:19:52.414Z,96337.09
2022-12-18T05:21:50.805Z,96342.53
2022-12-18T05:23:48.976Z,96341.94
2022-12-18T05:25:53.364Z,96349.75
2022-12-18T05:27:51.703Z,96349.59
2022-12-18T05:29:49.918Z,96343.34
2022-12-18T05:31:48.253Z,96354.94
2022-12-18T05:33:46.687Z,96358.03
2022-12-18T05:35:45.206Z,96358.16
2022-12-18T05:37:43.672Z,96356.91
2022-12-18T05:39:42.029Z,96373.59
2022-12-18T05:41:41.691Z,96366.91
2022-12-18T05:43:41.789Z,96373.13
2022-12-18T05:45:41.185Z,96380.16
2022-12-18T05:47:39.497Z,96371.50
2022-12-18T05:49:37.685Z,96372.88
2022-12-18T05:51:35.973Z,96378.56
2022-12-18T05:53:34.213Z,96378.56
2022-12-18T05:55:36.065Z,96384.22
2022-12-18T05:57:35.857Z,96380.78
2022-12-18T05:59:34.401Z,96388.63
2022-12-18T06:01:32.772Z,96392.31
2022-12-18T06:03:33.899Z,96391.47
2022-12-18T06:05:37.735Z,96396.63
2022-12-18T06:07:35.947Z,96407.09
2022-12-18T06:09:34.197Z,96402.53
2022-12-18T06:11:32.706Z,96396.13
2022-12-18T06:13:32.347Z,96403.38
2022-12-18T06:15:30.503Z,96396.84
2022-12-18T06:17:31.136Z,96399.75
2022-12-18T06:19:29.479Z,96393.41
2022-12-18T06:21:27.792Z,96398.19
2022-12-18T06:23:26.090Z,96401.47
2022-12-18T06:25:24.297Z,96412.31
2022-12-18T06:27:22.695Z,96405.66
2022-12-18T06:29:22.508Z,96406.69
2022-12-18T06:31:20.925Z,96410.97
2022-12-18T06:33:19.731Z,96413.03
2022-12-18T06:35:17.926Z,96421.41
2022-12-18T06:37:16.624Z,96415.56
2022-12-18T06:39:14.794Z,96419.00
2022-12-18T06:41:14.725Z,96435.22
2022-12-18T06:43:12.977Z,96431.09
2022-12-18T06:45:13.150Z,96432.81
2022-12-18T06:47:11.669Z,96438.88
2022-12-18T06:49:11.124Z,96426.69
2022-12-18T06:51:09.444Z,96441.50
2022-12-18T06:53:07.764Z,96443.09
2022-12-18T06:55:15.086Z,96453.63
2022-12-18T06:57:13.445Z,96447.44
2022-12-18T06:59:11.709Z,96444.91
2022-12-18T07:01:13.378Z,96450.34
2022-12-18T07:03:11.725Z,96454.03
2022-12-18T07:05:11.295Z,96452.06
2022-12-18T07:07:09.604Z,96446.34
2022-12-18T07:09:07.967Z,96452.19
2022-12-18T07:11:06.873Z,96456.66
2022-12-18T07:13:05.169Z,96460.03
2022-12-18T07:15:05.937Z,96453.94
2022-12-18T07:17:05.853Z,96461.97
2022-12-18T07:19:04.902Z,96460.03
2022-12-18T07:21:05.730Z,96466.22
2022-12-18T07:23:04.860Z,96464.78
2022-12-18T07:25:03.114Z,96457.00
2022-12-18T07:27:01.393Z,96461.41
2022-12-18T07:29:00.260Z,96471.03
2022-12-18T07:30:58.494Z,96472.72
2022-12-18T07:32:58.283Z,96481.66
2022-12-18T07:34:56.509Z,96475.72
2022-12-18T07:36:54.851Z,96478.50
2022-12-18T07:38:53.925Z,96483.75
2022-12-18T07:40:52.197Z,96482.75
2022-12-18T07:42:50.330Z,96488.13
2022-12-18T07:44:48.581Z,96487.88
2022-12-18T07:46:47.019Z,96490.47
2022-12-18T07:48:49.968Z,96482.00
2022-12-18T07:50:48.467Z,96483.69
2022-12-18T07:52:46.915Z,96483.59
2022-12-18T07:54:45.295Z,96485.84
2022-12-18T07:56:43.581Z,96494.75
2022-12-18T07:58:41.959Z,96501.66
2022-12-18T08:00:40.150Z,96505.06
2022-12-18T08:02:38.651Z,96507.13
2022-12-18T08:04:39.541Z,96504.56
2022-12-18T08:06:37.949Z,96507.78
2022-12-18T08:08:36.809Z,96504.66
2022-12-18T08:10:34.985Z,96507.25
2022-12-18T08:12:33.203Z,96520.56
2022-12-18T08:14:31.415Z,96514.78
2022-12-18T08:16:29.743Z,96513.78
2022-12-18T08:18:28.146Z,96521.44
2022-12-18T08:20:27.900Z,96526.81
2022-12-18T08:22:26.031Z,96533.28
2022-12-18T08:24:24.360Z,96542.66
2022-12-18T08:26:23.653Z,96538.91
2022-12-18T08:28:21.862Z,96538.78
2022-12-18T08:30:20.282Z,96545.78
2022-12-18T08:32:18.443Z,96541.31
2022-12-18T08:34:16.904Z,96550.06
2022-12-18T08:36:16.407Z,96544.63
2022-12-18T08:38:14.707Z,96545.38
2022-12-18T08:40:14.026Z,96544.84
2022-12-18T08:42:29.920Z,96549.25
2022-12-18T08:44:39.965Z,96551.22
2022-12-18T08:46:40.171Z,96548.56
2022-12-18T08:48:38.549Z,96544.69
2022-12-18T08:50:36.841Z,96556.44
2022-12-18T08:52:36.417Z,96570.25
2022-12-18T08:54:34.761Z,96558.31
2022-12-18T08:56:33.565Z,96558.28
2022-12-18T08:58:34.159Z,96555.06
2022-12-18T09:00:32.479Z,96550.81
2022-12-18T09:02:36.598Z,96556.97
2022-12-18T09:04:40.844Z,96553.81
2022-12-18T09:06:39.486Z,96554.13
2022-12-18T09:08:39.589Z,96548.44
2022-12-18T09:10:45.385Z,96546.25
2022-12-18T09:12:43.678Z,96558.13
2022-12-18T09:14:41.998Z,96552.13
2022-12-18T09:16:40.569Z,96539.13
2022-12-18T09:18:39.202Z,96544.56
2022-12-18T09:20:38.159Z,96543.59
2022-12-18T09:22:36.411Z,96551.59
2022-12-18T09:24:36.035Z,96548.47
2022-12-18T09:26:34.455Z,96551.03
2022-12-18T09:28:32.836Z,96551.94
2022-12-18T09:30:31.454Z,96556.06
2022-12-18T09:32:30.870Z,96551.44
2022-12-18T09:34:29.178Z,96547.41
2022-12-18T09:36:30.004Z,96553.50
2022-12-18T09:38:28.102Z,96549.72
2022-12-18T09:40:34.989Z,96549.00
2022-12-18T09:42:33.372Z,96557.09
2022-12-18T09:44:36.051Z,96550.78
2022-12-18T09:46:42.793Z,96542.13
2022-12-18T09:48:44.336Z,96547.19
2022-12-18T09:50:43.042Z,96556.25
2022-12-18T09:52:47.019Z,96558.09
2022-12-18T09:54:48.511Z,96550.28
2022-12-18T09:56:48.273Z,96547.41
2022-12-18T09:58:51.442Z,96535.28
2022-12-18T10:00:49.680Z,96551.06
2022-12-18T10:02:54.251Z,96536.72
2022-12-18T10:05:04.435Z,96543.38
2022-12-18T10:07:10.159Z,96536.13
2022-12-18T10:09:16.246Z,96548.53
2022-12-18T10:11:29.966Z,96538.66
2022-12-18T10:13:36.018Z,96548.19
2022-12-18T10:15:42.442Z,96543.25
2022-12-18T10:17:45.656Z,96551.78
2022-12-18T10:19:50.435Z,96540.22
2022-12-18T10:21:58.615Z,96542.56
2022-12-18T10:24:04.202Z,96543.78
2022-12-18T10:26:05.650Z,96554.81
2022-12-18T10:28:12.263Z,96559.03
2022-12-18T10:30:18.236Z,96544.91
2022-12-18T10:32:19.529Z,96550.91
2022-12-18T10:34:17.829Z,96543.78
2022-12-18T10:36:16.186Z,96552.19
2022-12-18T10:38:26.074Z,96542.97
2022-12-18T10:40:27.199Z,96540.00
2022-12-18T10:42:25.562Z,96538.59
2022-12-18T10:44:27.828Z,96548.19
2022-12-18T10:46:27.673Z,96541.41
2022-12-18T10:48:26.945Z,96537.97
2022-12-18T10:50:53.963Z,96534.44
2022-12-18T10:52:57.274Z,96535.84
2022-12-18T10:54:59.313Z,96546.16
2022-12-18T10:57:16.824Z,96542.97
2022-12-18T10:59:16.931Z,96538.88
2022-12-18T11:01:17.002Z,96540.88
2022-12-18T11:03:36.705Z,96543.97
2022-12-18T11:05:37.951Z,96544.09
2022-12-18T11:07:51.455Z,96540.22
2022-12-18T11:10:06.631Z,96543.22
2022-12-18T11:12:07.166Z,96545.44
2022-12-18T11:14:07.617Z,96545.34
2022-12-18T11:16:06.075Z,96541.53
2022-12-18T11:18:04.462Z,96545.19
2022-12-18T11:20:09.192Z,96535.63
2022-12-18T11:22:46.521Z,96551.63
2022-12-18T11:29:06.231Z,96552.28
2022-12-18T11:31:28.669Z,96551.72
2022-12-18T11:33:38.139Z,96550.44
2022-12-18T11:36:02.831Z,96542.25
2022-12-18T11:38:20.136Z,96549.03
2022-12-18T11:40:51.796Z,96542.97
2022-12-18T11:43:10.598Z,96545.53
2022-12-18T11:45:43.753Z,96550.19
2022-12-18T11:48:13.006Z,96547.47
2022-12-18T11:50:59.014Z,96553.78
2022-12-18T11:53:25.278Z,96555.34
2022-12-18T11:55:59.732Z,96555.34
2022-12-18T11:58:07.175Z,96538.78
2022-12-18T12:00:16.811Z,96545.47
2022-12-18T12:02:32.026Z,96541.75
2022-12-18T12:04:49.082Z,96534.31
2022-12-18T12:07:00.043Z,96537.28
2022-12-18T12:09:13.687Z,96542.97
2022-12-18T12:11:21.274Z,96550.53
2022-12-18T12:13:32.344Z,96544.16
2022-12-18T12:15:44.422Z,96538.75
2022-12-18T12:17:47.921Z,96542.91
2022-12-18T12:19:54.804Z,96543.09
2022-12-18T12:22:00.257Z,96540.97
2022-12-18T12:24:12.736Z,96542.25
2022-12-18T12:26:14.107Z,96538.34
2022-12-18T12:28:20.715Z,96539.53
2022-12-18T12:30:23.912Z,96543.72
2022-12-18T12:32:33.907Z,96548.44
2022-12-18T12:34:42.657Z,96557.38
2022-12-18T12:36:54.233Z,96553.53
2022-12-18T12:38:57.232Z,96556.13
2022-12-18T12:41:03.406Z,96554.19
2022-12-18T12:43:15.177Z,96554.16
2022-12-18T12:45:22.724Z,96552.38
2022-12-18T12:47:26.186Z,96549.09
2022-12-18T12:49:29.189Z,96554.66
2022-12-18T12:51:30.472Z,96548.22
2022-12-18T12:53:33.008Z,96560.06
2022-12-18T12:55:32.173Z,96553.03
2022-12-18T12:57:37.034Z,96559.28
2022-12-18T12:59:44.700Z,96556.88
2022-12-18T13:01:55.272Z,96564.16
2022-12-18T13:04:03.417Z,96566.19
2022-12-18T13:06:05.290Z,96568.19
2022-12-18T13:08:08.833Z,96568.34
2022-12-18T13:10:29.319Z,96566.97
2022-12-18T13:12:45.983Z,96575.41
2022-12-18T13:14:46.477Z,96582.56
2022-12-18T13:16:45.074Z,96591.94
2022-12-18T13:18:51.411Z,96588.59
2022-12-18T13:20:55.237Z,96587.13
2022-12-18T13:22:58.025Z,96594.44
2022-12-18T13:24:56.615Z,96592.53
2022-12-18T13:26:56.242Z,96588.53
2022-12-18T13:28:56.317Z,96593.84
2022-12-18T13:30:59.622Z,96594.88
2022-12-18T13:34:25.215Z,96584.88
2022-12-18T13:36:16.799Z,96599.41
2022-12-18T13:38:24.114Z,96600.81
2022-12-18T13:41:06.560Z,96595.25
2022-12-18T13:43:25.407Z,96592.72
2022-12-18T13:46:11.779Z,96593.28
2022-12-18T13:48:23.511Z,96610.66
2022-12-18T13:50:35.430Z,96606.94
2022-12-18T13:52:39.436Z,96611.63
2022-12-18T13:54:41.497Z,96617.19
2022-12-18T13:56:47.074Z,96613.81
2022-12-18T13:58:46.420Z,96609.53
2022-12-18T14:00:46.472Z,96614.28
2022-12-18T14:02:47.972Z,96611.31
2022-12-18T14:04:49.725Z,96618.00
2022-12-18T14:06:48.411Z,96620.72
2022-12-18T14:08:47.646Z,96624.22
2022-12-18T14:10:50.055Z,96626.53
2022-12-18T14:13:01.108Z,96623.13
2022-12-18T14:15:02.550Z,96629.63
2022-12-18T14:17:01.619Z,96628.84
2022-12-18T14:19:15.665Z,96628.09
2022-12-18T14:21:24.494Z,96639.34
2022-12-18T14:23:31.382Z,96636.63
2022-12-18T14:25:33.151Z,96633.72
2022-12-18T14:27:32.718Z,96629.59
2022-12-18T14:29:32.876Z,96642.06
2022-12-18T14:31:32.978Z,96639.44
2022-12-18T14:33:31.112Z,96649.44
2022-12-18T14:35:32.490Z,96650.16
2022-12-18T14:37:32.177Z,96646.34
2022-12-18T14:39:30.396Z,96646.22
2022-12-18T14:41:28.930Z,96642.81
2022-12-18T14:43:27.884Z,96638.09
2022-12-18T14:45:41.575Z,96646.81
2022-12-18T14:47:45.312Z,96641.94
2022-12-18T14:49:44.656Z,96649.22
2022-12-18T14:51:49.945Z,96644.00
2022-12-18T14:53:55.822Z,96651.00
2022-12-18T14:55:54.444Z,96644.44
2022-12-18T14:57:58.295Z,96651.47
2022-12-18T15:00:09.936Z,96646.56
2022-12-18T15:02:20.012Z,96646.31
2022-12-18T15:04:40.334Z,96642.72
2022-12-18T15:06:41.343Z,96651.59
2022-12-18T15:08:39.712Z,96646.84
2022-12-18T15:10:49.748Z,96644.28
2022-12-18T15:12:50.845Z,96653.72
2022-12-18T15:14:49.153Z,96648.44
2022-12-18T15:16:53.145Z,96659.03
2022-12-18T15:18:51.562Z,96658.19
2022-12-18T15:20:51.807Z,96661.72
2022-12-18T15:22:50.199Z,96653.84
2022-12-18T15:24:48.745Z,96659.84
2022-12-18T15:26:48.875Z,96668.50
2022-12-18T15:28:50.857Z,96665.09
2022-12-18T15:31:04.357Z,96665.31
2022-12-18T15:33:24.441Z,96678.28
2022-12-18T15:35:24.427Z,96675.69
2022-12-18T15:37:22.671Z,96674.94
2022-12-18T15:39:20.985Z,96688.25
2022-12-18T15:41:24.738Z,96686.50
2022-12-18T15:43:36.860Z,96685.63
2022-12-18T15:45:35.001Z,96687.19
2022-12-18T15:47:35.420Z,96692.41
2022-12-18T15:49:33.757Z,96700.31
2022-12-18T15:51:35.392Z,96702.81
2022-12-18T15:53:35.779Z,96698.44
2022-12-18T15:55:53.341Z,96699.31
2022-12-18T15:57:54.014Z,96700.25
2022-12-18T15:59:55.414Z,96701.59
2022-12-18T16:01:55.175Z,96707.47
2022-12-18T16:03:54.709Z,96712.00
2022-12-18T16:05:53.080Z,96718.16
2022-12-18T16:07:52.511Z,96722.56
2022-12-18T16:09:50.827Z,96735.44
2022-12-18T16:11:49.064Z,96735.16
2022-12-18T16:13:47.413Z,96736.22
2022-12-18T16:15:47.370Z,96738.78
2022-12-18T16:17:46.384Z,96735.53
2022-12-18T16:19:45.842Z,96729.03
2022-12-18T16:21:44.330Z,96730.03
2022-12-18T16:23:43.049Z,96734.13
2022-12-18T16:25:41.446Z,96730.16
2022-12-18T16:27:39.727Z,96732.06
2022-12-18T16:29:38.711Z,96734.03
2022-12-18T16:31:38.709Z,96730.13
2022-12-18T16:33:36.975Z,96733.66
2022-12-18T16:35:35.366Z,96739.53
2022-12-18T16:37:33.653Z,96739.66
2022-12-18T16:39:33.039Z,96742.16
2022-12-18T16:41:33.860Z,96739.78
2022-12-18T16:43:31.983Z,96746.75
2022-12-18T16:45:34.301Z,96748.19
2022-12-18T16:47:34.107Z,96760.59
2022-12-18T16:49:32.685Z,96760.72
2022-12-18T16:51:31.298Z,96765.81
2022-12-18T16:53:32.331Z,96774.63
2022-12-18T16:55:31.631Z,96778.41
2022-12-18T16:57:29.866Z,96780.09
2022-12-18T16:59:27.978Z,96787.38
2022-12-18T17:01:27.596Z,96775.91
2022-12-18T17:03:27.742Z,96782.09
2022-12-18T17:05:26.132Z,96782.84
2022-12-18T17:07:25.103Z,96787.69
2022-12-18T17:09:25.699Z,96796.38
2022-12-18T17:11:24.961Z,96809.97
2022-12-18T17:13:37.462Z,96804.88
2022-12-18T17:15:36.674Z,96810.22
2022-12-18T17:17:36.595Z,96808.38
2022-12-18T17:19:37.120Z,96809.44
2022-12-18T17:21:35.376Z,96806.78
2022-12-18T17:23:33.908Z,96813.22
2022-12-18T17:25:32.241Z,96811.47
2022-12-18T17:27:30.984Z,96820.34
2022-12-18T17:29:29.186Z,96825.38
2022-12-18T17:31:28.977Z,96822.66
2022-12-18T17:33:27.232Z,96826.06
2022-12-18T17:35:26.883Z,96824.38
2022-12-18T17:37:25.737Z,96826.06
2022-12-18T17:39:23.987Z,96819.25
2022-12-18T17:41:22.724Z,96822.09
2022-12-18T17:43:21.105Z,96822.94
2022-12-18T17:45:21.140Z,96819.72
2022-12-18T17:47:20.149Z,96816.41
2022-12-18T17:49:18.533Z,96817.22
2022-12-18T17:51:19.190Z,96816.47
2022-12-18T17:53:17.479Z,96812.94
2022-12-18T17:55:15.816Z,96820.13
2022-12-18T17:57:14.103Z,96819.84
2022-12-18T17:59:12.492Z,96815.53
2022-12-18T18:01:12.268Z,96813.44
2022-12-18T18:03:12.706Z,96820.44
2022-12-18T18:05:11.948Z,96814.31
2022-12-18T18:07:13.622Z,96822.09
2022-12-18T18:09:15.998Z,96823.19
2022-12-18T18:11:35.181Z,96822.56
2022-12-18T18:13:51.192Z,96827.63
2022-12-18T18:15:57.045Z,96821.88
2022-12-18T18:17:55.258Z,96828.84
2022-12-18T18:19:53.634Z,96824.03
2022-12-18T18:21:53.822Z,96830.88
2022-12-18T18:23:54.204Z,96842.78
2022-12-18T18:25:55.660Z,96833.75
2022-12-18T18:27:54.382Z,96833.97
2022-12-18T18:29:52.644Z,96828.13
2022-12-18T18:31:51.108Z,96833.97
2022-12-18T18:33:50.013Z,96839.94
2022-12-18T18:35:55.529Z,96839.91
2022-12-18T18:37:53.683Z,96836.59
2022-12-18T18:39:53.536Z,96845.22
2022-12-18T18:41:52.332Z,96847.94
2022-12-18T18:43:50.520Z,96855.81
2022-12-18T18:45:50.532Z,96857.28
2022-12-18T18:47:48.833Z,96860.81
2022-12-18T18:49:47.005Z,96863.47
2022-12-18T18:51:45.212Z,96871.63
2022-12-18T18:53:45.431Z,96866.69
2022-12-18T18:55:44.951Z,96864.94
2022-12-18T18:57:43.317Z,96864.88
2022-12-18T18:59:42.135Z,96867.63
2022-12-18T19:01:40.361Z,96865.72
2022-12-18T19:03:39.974Z,96878.56
2022-12-18T19:05:42.882Z,96872.75
2022-12-18T19:07:41.397Z,96877.63
2022-12-18T19:09:39.618Z,96882.06
2022-12-18T19:11:57.126Z,96884.81
2022-12-18T19:13:55.640Z,96889.69
2022-12-18T19:15:58.033Z,96892.25
2022-12-18T19:17:56.473Z,96888.66
2022-12-18T19:19:54.799Z,96893.03
2022-12-18T19:21:53.042Z,96893.84
2022-12-18T19:23:51.572Z,96898.22
2022-12-18T19:25:52.972Z,96894.16
2022-12-18T19:28:21.466Z,96895.09
2022-12-18T19:30:20.732Z,96890.13
2022-12-18T19:32:18.929Z,96899.53
2022-12-18T19:34:17.374Z,96904.75
2022-12-18T19:36:19.685Z,96909.28
2022-12-18T19:38:18.051Z,96900.59
2022-12-18T19:40:16.299Z,96904.84
2022-12-18T19:42:14.458Z,96909.41
2022-12-18T19:44:15.570Z,96918.22
2022-12-18T19:46:16.426Z,96911.31
2022-12-18T19:48:14.681Z,96919.03
2022-12-18T19:50:12.994Z,96919.88
2022-12-18T19:52:11.472Z,96921.69
2022-12-18T19:54:14.727Z,96917.88
2022-12-18T19:56:17.074Z,96922.47
2022-12-18T19:58:15.287Z,96915.53
2022-12-18T20:00:18.838Z,96925.13
2022-12-18T20:02:19.162Z,96929.59
2022-12-18T20:04:17.519Z,96932.25
2022-12-18T20:06:20.369Z,96937.56
2022-12-18T20:08:18.718Z,96934.06
2022-12-18T20:10:17.421Z,96930.00
2022-12-18T20:12:17.210Z,96938.56
2022-12-18T20:14:20.654Z,96937.56
2022-12-18T20:16:23.305Z,96934.25
2022-12-18T20:18:21.442Z,96938.66
2022-12-18T20:20:20.045Z,96947.44
2022-12-18T20:22:18.822Z,96943.09
2022-12-18T20:24:17.001Z,96937.81
2022-12-18T20:26:16.691Z,96944.75
2022-12-18T20:28:14.997Z,96951.09
2022-12-18T20:30:14.064Z,96943.72
2022-12-18T20:32:13.741Z,96954.94
2022-12-18T20:34:12.097Z,96957.69
2022-12-18T20:36:15.428Z,96959.41
2022-12-18T20:38:14.676Z,96963.78
2022-12-18T20:40:14.928Z,96972.44
2022-12-18T20:42:13.076Z,96972.56
2022-12-18T20:44:23.040Z,96969.75
2022-12-18T20:46:22.505Z,96970.63
2022-12-18T20:48:26.462Z,96980.13
2022-12-18T20:50:24.879Z,96980.38
2022-12-18T20:52:23.499Z,96984.78
2022-12-18T20:54:22.269Z,96979.69
2022-12-18T20:56:23.299Z,96984.88
2022-12-18T20:58:21.726Z,96990.94
2022-12-18T21:00:21.237Z,96988.59
2022-12-18T21:02:27.012Z,96993.00
2022-12-18T21:04:26.709Z,96992.84
2022-12-18T21:06:25.749Z,96989.31
2022-12-18T21:08:24.016Z,96978.88
2022-12-18T21:10:22.280Z,96978.03
2022-12-18T21:12:40.267Z,96984.28
2022-12-18T21:14:47.776Z,96980.75
2022-12-18T21:16:49.160Z,96993.44
2022-12-18T21:18:47.242Z,96995.34
2022-12-18T21:20:46.979Z,96984.91
2022-12-18T21:22:45.328Z,96985.88
2022-12-18T21:24:43.525Z,96994.50
2022-12-18T21:26:46.322Z,96985.03
2022-12-18T21:28:45.049Z,96997.28
2022-12-18T21:30:43.438Z,96986.00
2022-12-18T21:32:41.903Z,96981.59
2022-12-18T21:34:43.375Z,96988.31
2022-12-18T21:36:47.960Z,97000.41
2022-12-18T21:38:46.176Z,97001.38
2022-12-18T21:40:45.301Z,96998.13
2022-12-18T21:43:00.823Z,96996.44
2022-12-18T21:44:59.184Z,96996.47
2022-12-18T21:47:05.778Z,96993.03
2022-12-18T21:49:11.892Z,96992.13
2022-12-18T21:51:10.251Z,96995.53
2022-12-18T21:53:12.474Z,96988.56
2022-12-18T21:55:11.037Z,96995.53
2022-12-18T21:57:09.745Z,96998.22
2022-12-18T21:59:08.506Z,96988.00
2022-12-18T22:01:06.999Z,97005.19
2022-12-18T22:03:18.676Z,96991.41
2022-12-18T22:05:17.443Z,96996.63
2022-12-18T22:07:16.984Z,97004.47
2022-12-18T22:09:18.539Z,96997.59
2022-12-18T22:11:16.717Z,96999.41
2022-12-18T22:13:16.338Z,97001.13
2022-12-18T22:15:21.527Z,96995.81
2022-12-18T22:17:20.318Z,97008.75
2022-12-18T22:19:20.613Z,96999.34
2022-12-18T22:21:29.665Z,97004.63
2022-12-18T22:23:28.054Z,97001.19
2022-12-18T22:25:27.759Z,96991.69
2022-12-18T22:27:25.962Z,96996.84
2022-12-18T22:29:43.181Z,96996.06
2022-12-18T22:31:41.882Z,96990.06
2022-12-18T22:33:40.200Z,96984.94
2022-12-18T22:35:38.482Z,96983.25
2022-12-18T22:37:37.076Z,96984.81
2022-12-18T22:39:35.246Z,96980.38
2022-12-18T22:41:35.789Z,96981.03
2022-12-18T22:43:34.506Z,96983.72
2022-12-18T22:45:32.711Z,96973.22
2022-12-18T22:47:36.813Z,96972.19
2022-12-18T22:49:35.647Z,96974.06
2022-12-18T22:51:34.200Z,96980.25
2022-12-18T22:53:32.376Z,96967.38
2022-12-18T22:55:30.850Z,96964.09
2022-12-18T22:57:30.454Z,96968.22
2022-12-18T22:59:28.640Z,96968.09
2022-12-18T23:01:28.582Z,96972.47
2022-12-18T23:03:27.032Z,96970.88
2022-12-18T23:05:25.226Z,96967.53
2022-12-18T23:07:23.401Z,96977.84
2022-12-18T23:09:21.736Z,96975.31
2022-12-18T23:11:20.902Z,96986.59
2022-12-18T23:13:20.552Z,96978.88
2022-12-18T23:15:19.526Z,96978.03
2022-12-18T23:17:25.677Z,96979.81
2022-12-18T23:19:24.220Z,96984.13
2022-12-18T23:21:23.536Z,96980.00
2022-12-18T23:23:22.544Z,96986.78
2022-12-18T23:25:20.756Z,96986.72
2022-12-18T23:27:18.875Z,96983.25
2022-12-18T23:29:18.630Z,96989.31
2022-12-18T23:31:18.756Z,96989.44
2022-12-18T23:33:17.031Z,96989.41
2022-12-18T23:35:16.010Z,96995.50
2022-12-18T23:37:24.966Z,96982.56
2022-12-18T23:39:32.445Z,96988.69
2022-12-18T23:41:32.565Z,96988.56
2022-12-18T23:43:30.954Z,96984.19
2022-12-18T23:45:30.499Z,96986.72
2022-12-18T23:47:28.802Z,96990.13
2022-12-18T23:49:27.182Z,96986.03
2022-12-18T23:51:25.808Z,96993.88
2022-12-18T23:53:23.975Z,96999.19
2022-12-18T23:55:22.119Z,97005.97
2022-12-18T23:57:20.502Z,97011.13
2022-12-18T23:59:25.434Z,97010.25
